createdAt,value
2023-04-13T00:01:11.657Z,58.12
2023-04-13T00:03:39.435Z,59.01
2023-04-13T00:06:11.114Z,58.38
2023-04-13T00:08:38.628Z,58.75
2023-04-13T00:11:07.571Z,59.62
2023-04-13T00:13:41.284Z,58.81
2023-04-13T00:16:10.208Z,59.46
2023-04-13T00:18:37.284Z,59.64
2023-04-13T00:21:04.436Z,58.58
2023-04-13T00:23:32.148Z,58.93
2023-04-13T00:26:01.628Z,58.71
2023-04-13T00:28:30.257Z,58.44
2023-04-13T00:30:59.267Z,59.23
2023-04-13T00:33:26.674Z,58.73
2023-04-13T00:35:53.840Z,59.58
2023-04-13T00:38:20.855Z,58.62
2023-04-13T00:40:47.759Z,60.03
2023-04-13T00:43:16.740Z,59.12
2023-04-13T00:45:44.129Z,58.70
2023-04-13T00:48:31.228Z,59.15
2023-04-13T00:51:18.150Z,59.50
2023-04-13T00:54:05.354Z,59.38
2023-04-13T00:56:52.486Z,58.79
2023-04-13T00:59:40.429Z,58.89
2023-04-13T01:02:29.054Z,58.78
2023-04-13T01:05:17.370Z,59.50
2023-04-13T01:08:30.610Z,59.24
2023-04-13T01:11:24.330Z,58.92
2023-04-13T01:14:29.171Z,59.09
2023-04-13T01:17:21.538Z,59.56
2023-04-13T01:20:15.350Z,59.68
2023-04-13T01:23:10.689Z,59.71
2023-04-13T01:26:02.269Z,60.16
2023-04-13T01:28:50.473Z,59.82
2023-04-13T01:31:38.720Z,60.43
2023-04-13T01:34:26.082Z,59.43
2023-04-13T01:37:14.026Z,60.29
2023-04-13T01:40:01.223Z,59.59
2023-04-13T01:43:01.117Z,60.43
2023-04-13T01:46:07.831Z,60.42
2023-04-13T01:49:12.598Z,60.72
2023-04-13T01:52:36.566Z,60.47
2023-04-13T01:55:26.625Z,59.83
2023-04-13T01:58:18.770Z,60.95
2023-04-13T02:01:15.174Z,60.54
2023-04-13T02:04:03.111Z,60.29
2023-04-13T02:06:51.907Z,59.97
2023-04-13T02:09:45.310Z,60.56
2023-04-13T02:12:32.577Z,59.58
2023-04-13T02:15:19.689Z,61.14
2023-04-13T02:18:06.606Z,60.12
2023-04-13T02:21:05.202Z,59.73
2023-04-13T02:23:52.065Z,60.53
2023-04-13T02:26:39.404Z,60.92
2023-04-13T02:29:34.620Z,60.94
2023-04-13T02:32:22.516Z,60.45
2023-04-13T02:35:09.913Z,60.86
2023-04-13T02:37:58.998Z,61.07
2023-04-13T02:40:45.936Z,61.42
2023-04-13T02:43:33.042Z,60.90
2023-04-13T02:46:20.505Z,60.16
2023-04-13T02:49:11.623Z,60.44
2023-04-13T02:52:06.467Z,60.89
2023-04-13T02:55:11.128Z,60.88
2023-04-13T02:58:10.973Z,61.04
2023-04-13T03:00:58.694Z,61.21
2023-04-13T03:03:45.883Z,61.42
2023-04-13T03:06:33.050Z,60.91
2023-04-13T03:09:21.658Z,60.74
2023-04-13T03:12:13.780Z,61.27
2023-04-13T03:15:03.390Z,61.32
2023-04-13T03:17:51.764Z,61.02
2023-04-13T03:20:44.105Z,60.98
2023-04-13T03:23:31.700Z,61.25
2023-04-13T03:26:18.825Z,61.77
2023-04-13T03:29:06.012Z,60.83
2023-04-13T03:31:58.561Z,60.94
2023-04-13T03:34:48.245Z,61.78
2023-04-13T03:37:35.403Z,60.80
2023-04-13T03:40:31.771Z,61.99
2023-04-13T03:43:18.732Z,61.69
2023-04-13T03:46:12.658Z,61.90
2023-04-13T03:49:00.982Z,61.56
2023-04-13T03:51:48.920Z,62.28
2023-04-13T03:54:36.852Z,62.11
2023-04-13T03:57:25.374Z,61.97
2023-04-13T04:00:12.433Z,61.18
2023-04-13T04:03:10.321Z,62.63
2023-04-13T04:06:11.528Z,62.61
2023-04-13T04:09:02.072Z,62.82
2023-04-13T04:11:57.043Z,62.69
2023-04-13T04:14:58.127Z,61.34
2023-04-13T04:17:48.016Z,61.43
2023-04-13T04:20:35.405Z,61.64
2023-04-13T04:23:23.130Z,62.20
2023-04-13T04:26:18.095Z,62.12
2023-04-13T04:29:19.901Z,61.91
2023-04-13T04:32:06.967Z,62.66
2023-04-13T04:34:53.902Z,62.83
2023-04-13T04:37:42.800Z,61.65
2023-04-13T04:40:36.197Z,62.01
2023-04-13T04:43:28.354Z,61.76
2023-04-13T04:46:16.231Z,63.23
2023-04-13T04:49:09.174Z,63.27
2023-04-13T04:51:56.852Z,62.24
2023-04-13T04:54:44.750Z,62.45
2023-04-13T04:57:32.802Z,62.70
2023-04-13T05:00:20.802Z,62.67
2023-04-13T05:03:19.929Z,62.76
2023-04-13T05:06:12.589Z,62.17
2023-04-13T05:09:00.019Z,63.31
2023-04-13T05:11:50.818Z,63.14
2023-04-13T05:14:39.957Z,63.51
2023-04-13T05:17:27.040Z,63.08
2023-04-13T05:20:14.144Z,62.67
2023-04-13T05:23:08.110Z,62.75
2023-04-13T05:26:00.332Z,62.68
2023-04-13T05:28:47.426Z,63.48
2023-04-13T05:31:34.892Z,63.80
2023-04-13T05:34:23.046Z,63.57
2023-04-13T05:37:25.396Z,63.00
2023-04-13T05:40:12.413Z,63.37
2023-04-13T05:43:01.464Z,63.29
2023-04-13T05:45:52.859Z,63.71
2023-04-13T05:48:39.754Z,62.37
2023-04-13T05:51:29.474Z,63.65
2023-04-13T05:54:17.477Z,62.86
2023-04-13T05:57:08.278Z,63.26
2023-04-13T06:00:01.096Z,63.31
2023-04-13T06:03:00.567Z,63.34
2023-04-13T06:05:47.583Z,62.47
2023-04-13T06:08:35.296Z,62.77
2023-04-13T06:11:22.194Z,62.46
2023-04-13T06:14:09.273Z,62.40
2023-04-13T06:16:57.341Z,62.33
2023-04-13T06:19:44.782Z,62.99
2023-04-13T06:22:31.634Z,63.12
2023-04-13T06:25:18.753Z,62.92
2023-04-13T06:28:07.058Z,62.28
2023-04-13T06:30:58.498Z,62.41
2023-04-13T06:33:45.840Z,62.33
2023-04-13T06:36:33.404Z,63.50
2023-04-13T06:39:21.553Z,62.38
2023-04-13T06:42:16.247Z,62.17
2023-04-13T06:45:18.141Z,63.22
2023-04-13T06:48:05.245Z,62.03
2023-04-13T06:50:53.368Z,62.30
2023-04-13T06:53:40.295Z,62.61
2023-04-13T06:56:28.435Z,63.21
2023-04-13T06:59:15.435Z,62.78
2023-04-13T07:02:02.352Z,63.31
2023-04-13T07:04:51.505Z,63.44
2023-04-13T07:07:39.377Z,62.89
2023-04-13T07:10:27.172Z,62.76
2023-04-13T07:13:16.422Z,62.20
2023-04-13T07:16:03.378Z,61.96
2023-04-13T07:18:55.256Z,62.01
2023-04-13T07:21:42.391Z,62.87
2023-04-13T07:24:30.163Z,62.84
2023-04-13T07:27:19.722Z,62.52
2023-04-13T07:30:07.627Z,62.98
2023-04-13T07:32:59.345Z,62.13
2023-04-13T07:35:46.589Z,61.60
2023-04-13T07:38:34.065Z,61.96
2023-04-13T07:41:21.130Z,62.75
2023-04-13T07:44:10.466Z,62.06
2023-04-13T07:46:58.437Z,62.59
2023-04-13T07:49:47.410Z,62.45
2023-04-13T07:52:42.204Z,62.40
2023-04-13T07:55:29.435Z,62.25
2023-04-13T07:58:16.750Z,61.80
2023-04-13T08:01:03.987Z,62.45
2023-04-13T08:03:52.115Z,61.59
2023-04-13T08:06:42.651Z,62.75
2023-04-13T08:09:29.739Z,61.42
2023-04-13T08:12:16.651Z,61.68
2023-04-13T08:15:03.748Z,61.25
2023-04-13T08:17:51.055Z,61.33
2023-04-13T08:20:38.874Z,61.63
2023-04-13T08:23:26.671Z,62.32
2023-04-13T08:26:13.674Z,61.10
2023-04-13T08:29:00.763Z,62.13
2023-04-13T08:31:48.054Z,60.76
2023-04-13T08:34:34.965Z,61.46
2023-04-13T08:37:21.793Z,60.90
2023-04-13T08:40:08.868Z,61.90
2023-04-13T08:42:56.985Z,60.63
2023-04-13T08:45:45.114Z,61.20
2023-04-13T08:48:46.207Z,61.65
2023-04-13T08:51:41.943Z,61.29
2023-04-13T08:54:29.110Z,61.63
2023-04-13T08:57:17.663Z,60.79
2023-04-13T09:00:04.843Z,60.29
2023-04-13T09:03:03.664Z,60.69
2023-04-13T09:05:59.063Z,60.60
2023-04-13T09:08:47.584Z,60.68
2023-04-13T09:11:34.973Z,60.64
2023-04-13T09:14:23.256Z,60.36
2023-04-13T09:17:11.908Z,59.75
2023-04-13T09:19:59.116Z,59.73
2023-04-13T09:22:49.128Z,60.65
2023-04-13T09:25:50.098Z,60.25
2023-04-13T09:28:38.700Z,60.01
2023-04-13T09:31:25.734Z,59.51
2023-04-13T09:34:12.983Z,60.14
2023-04-13T09:37:02.023Z,59.30
2023-04-13T09:39:49.173Z,59.65
2023-04-13T09:42:37.995Z,60.09
2023-04-13T09:45:26.144Z,58.83
2023-04-13T09:48:13.112Z,59.47
2023-04-13T09:51:00.082Z,59.78
2023-04-13T09:53:47.501Z,59.45
2023-04-13T09:56:35.182Z,59.06
2023-04-13T09:59:22.280Z,58.51
2023-04-13T10:02:10.374Z,58.54
2023-04-13T10:04:57.474Z,58.50
2023-04-13T10:07:44.435Z,58.41
2023-04-13T10:10:31.966Z,57.89
2023-04-13T10:13:24.124Z,58.37
2023-04-13T10:16:20.832Z,57.49
2023-04-13T10:19:14.376Z,57.34
2023-04-13T10:22:06.945Z,57.41
2023-04-13T10:24:55.878Z,57.17
2023-04-13T10:27:47.230Z,56.74
2023-04-13T10:30:36.272Z,56.87
2023-04-13T10:33:27.229Z,56.48
2023-04-13T10:36:16.002Z,56.87
2023-04-13T10:39:03.950Z,56.14
2023-04-13T10:41:50.857Z,56.06
2023-04-13T10:44:38.955Z,55.86
2023-04-13T10:47:27.919Z,55.82
2023-04-13T10:50:15.133Z,55.47
2023-04-13T10:53:02.121Z,55.07
2023-04-13T10:55:49.397Z,55.18
2023-04-13T10:58:37.085Z,54.38
2023-04-13T11:01:24.904Z,54.39
2023-04-13T11:04:15.217Z,54.29
2023-04-13T11:07:05.006Z,54.34
2023-04-13T11:09:51.976Z,54.01
2023-04-13T11:12:39.740Z,53.87
2023-04-13T11:15:28.129Z,53.50
2023-04-13T11:18:17.384Z,52.98
2023-04-13T11:21:06.821Z,53.05
2023-04-13T11:23:55.659Z,52.88
2023-04-13T11:26:56.043Z,52.45
2023-04-13T11:29:43.102Z,52.54
2023-04-13T11:32:37.813Z,52.29
2023-04-13T11:35:32.992Z,51.62
2023-04-13T11:38:19.837Z,51.90
2023-04-13T11:43:57.011Z,51.75
2023-04-13T11:46:44.219Z,51.30
2023-04-13T11:49:31.511Z,51.10
2023-04-13T11:52:20.827Z,50.46
2023-04-13T11:55:21.703Z,50.19
2023-04-13T11:58:11.874Z,50.97
2023-04-13T12:01:03.397Z,50.52
2023-04-13T12:04:07.863Z,50.05
2023-04-13T12:07:02.488Z,49.54
2023-04-13T12:09:56.212Z,49.50
2023-04-13T12:12:54.655Z,49.77
2023-04-13T12:16:04.411Z,49.75
2023-04-13T12:18:54.630Z,48.91
2023-04-13T12:21:42.530Z,48.76
2023-04-13T12:24:30.354Z,49.11
2023-04-13T12:27:20.775Z,48.43
2023-04-13T12:30:07.744Z,48.99
2023-04-13T12:32:59.972Z,49.15
2023-04-13T12:35:46.996Z,48.72
2023-04-13T12:38:33.919Z,47.68
2023-04-13T12:41:21.899Z,47.48
2023-04-13T12:44:08.762Z,47.87
2023-04-13T12:46:55.650Z,46.67
2023-04-13T12:49:42.483Z,46.67
2023-04-13T12:52:29.337Z,47.40
2023-04-13T12:54:56.431Z,46.56
2023-04-13T12:57:23.522Z,46.86
2023-04-13T12:59:50.366Z,47.25
2023-04-13T13:02:17.287Z,46.65
2023-04-13T13:04:44.562Z,46.50
2023-04-13T13:07:11.669Z,46.76
2023-04-13T13:09:38.538Z,46.47
2023-04-13T13:12:05.639Z,46.69
2023-04-13T13:14:32.591Z,46.42
2023-04-13T13:17:00.850Z,45.87
2023-04-13T13:19:28.052Z,45.47
2023-04-13T13:21:55.291Z,45.09
2023-04-13T13:24:22.385Z,45.62
2023-04-13T13:27:14.265Z,45.17
2023-04-13T13:29:37.384Z,46.22
2023-04-13T13:32:08.036Z,45.06
2023-04-13T13:34:35.257Z,45.81
2023-04-13T13:37:02.194Z,45.23
2023-04-13T13:39:29.232Z,45.33
2023-04-13T13:41:57.329Z,44.57
2023-04-13T13:44:25.114Z,45.31
2023-04-13T13:46:52.054Z,45.06
2023-04-13T13:49:21.567Z,44.86
2023-04-13T13:51:54.625Z,44.87
2023-04-13T13:54:30.854Z,44.55
2023-04-13T13:56:58.067Z,45.63
2023-04-13T13:59:24.981Z,45.50
2023-04-13T14:01:52.023Z,45.42
2023-04-13T14:04:20.373Z,45.25
2023-04-13T14:06:49.577Z,45.55
2023-04-13T14:09:18.404Z,45.41
2023-04-13T14:11:51.780Z,45.02
2023-04-13T14:14:38.777Z,44.93
2023-04-13T14:17:26.500Z,44.60
2023-04-13T14:20:13.494Z,45.01
2023-04-13T14:23:01.312Z,45.09
2023-04-13T14:25:48.433Z,44.49
2023-04-13T14:28:35.346Z,45.30
2023-04-13T14:31:22.357Z,44.39
2023-04-13T14:34:09.746Z,45.00
2023-04-13T14:36:56.551Z,44.79
2023-04-13T14:39:43.629Z,44.57
2023-04-13T14:42:31.104Z,45.29
2023-04-13T14:45:18.093Z,44.47
2023-04-13T14:48:05.018Z,44.72
2023-04-13T14:50:51.970Z,44.71
2023-04-13T14:53:38.767Z,44.76
2023-04-13T14:56:26.049Z,44.97
2023-04-13T14:59:13.154Z,44.77
2023-04-13T15:02:00.272Z,44.92
2023-04-13T15:04:47.348Z,45.30
2023-04-13T15:07:34.368Z,45.17
2023-04-13T15:10:21.387Z,45.20
2023-04-13T15:13:08.390Z,45.14
2023-04-13T15:15:56.814Z,45.15
2023-04-13T15:18:43.816Z,45.12
2023-04-13T15:21:30.785Z,45.48
2023-04-13T15:24:17.872Z,45.58
2023-04-13T15:27:04.888Z,44.87
2023-04-13T15:29:51.859Z,44.77
2023-04-13T15:32:38.739Z,44.83
2023-04-13T15:35:26.981Z,45.63
2023-04-13T15:38:14.408Z,45.42
2023-04-13T15:41:01.249Z,44.80
2023-04-13T15:43:48.233Z,44.80
2023-04-13T15:46:35.179Z,44.99
2023-04-13T15:49:22.035Z,45.43
2023-04-13T15:52:09.286Z,44.61
2023-04-13T15:54:56.233Z,44.96
2023-04-13T15:57:43.198Z,44.69
2023-04-13T16:00:30.559Z,44.90
2023-04-13T16:03:17.838Z,44.64
2023-04-13T16:06:05.033Z,45.07
2023-04-13T16:08:52.043Z,44.89
2023-04-13T16:11:38.843Z,45.07
2023-04-13T16:14:29.491Z,44.90
2023-04-13T16:17:16.388Z,44.55
2023-04-13T16:20:03.268Z,44.92
2023-04-13T16:22:50.141Z,44.52
2023-04-13T16:25:37.845Z,44.23
2023-04-13T16:28:24.784Z,44.56
2023-04-13T16:31:14.221Z,44.54
2023-04-13T16:34:04.866Z,44.20
2023-04-13T16:36:56.200Z,44.27
2023-04-13T16:39:43.112Z,43.93
2023-04-13T16:42:30.468Z,44.05
2023-04-13T16:45:17.271Z,43.61
2023-04-13T16:48:04.287Z,43.99
2023-04-13T16:50:51.159Z,43.96
2023-04-13T16:53:38.194Z,44.00
2023-04-13T16:56:25.336Z,44.04
2023-04-13T16:59:12.428Z,43.97
2023-04-13T17:01:59.336Z,43.73
2023-04-13T17:04:46.229Z,44.06
2023-04-13T17:07:33.058Z,43.91
2023-04-13T17:10:19.940Z,43.87
2023-04-13T17:13:06.839Z,44.03
2023-04-13T17:15:53.798Z,43.70
2023-04-13T17:18:40.662Z,43.89
2023-04-13T17:21:27.586Z,43.90
2023-04-13T17:24:14.455Z,44.30
2023-04-13T17:27:01.344Z,43.93
2023-04-13T17:29:48.177Z,44.06
2023-04-13T17:32:35.219Z,44.21
2023-04-13T17:35:22.404Z,44.37
2023-04-13T17:38:09.220Z,44.23
2023-04-13T17:40:56.067Z,43.83
2023-04-13T17:43:43.033Z,44.48
2023-04-13T17:46:30.032Z,44.15
2023-04-13T17:49:16.988Z,44.16
2023-04-13T17:52:08.693Z,44.15
2023-04-13T17:54:55.652Z,44.60
2023-04-13T17:57:42.680Z,44.24
2023-04-13T18:00:30.337Z,44.45
2023-04-13T18:03:17.367Z,44.27
2023-04-13T18:06:04.443Z,45.11
2023-04-13T18:08:52.066Z,45.13
2023-04-13T18:11:38.981Z,45.00
2023-04-13T18:14:26.647Z,44.31
2023-04-13T18:17:13.560Z,44.80
2023-04-13T18:20:00.636Z,45.42
2023-04-13T18:22:47.895Z,45.62
2023-04-13T18:25:34.785Z,44.91
2023-04-13T18:28:21.638Z,45.69
2023-04-13T18:31:08.607Z,44.96
2023-04-13T18:33:55.723Z,44.78
2023-04-13T18:36:42.644Z,45.84
2023-04-13T18:39:29.646Z,46.01
2023-04-13T18:42:16.616Z,45.73
2023-04-13T18:45:03.445Z,44.81
2023-04-13T18:47:50.344Z,46.14
2023-04-13T18:50:37.265Z,45.29
2023-04-13T18:53:24.673Z,45.26
2023-04-13T18:56:12.509Z,45.97
2023-04-13T18:58:59.349Z,46.63
2023-04-13T19:01:46.265Z,46.35
2023-04-13T19:04:33.336Z,46.95
2023-04-13T19:07:20.294Z,46.53
2023-04-13T19:10:07.105Z,47.17
2023-04-13T19:12:54.797Z,46.49
2023-04-13T19:15:41.694Z,46.05
2023-04-13T19:18:28.694Z,47.04
2023-04-13T19:21:15.598Z,46.85
2023-04-13T19:24:02.367Z,46.74
2023-04-13T19:26:49.166Z,47.43
2023-04-13T19:29:36.251Z,47.20
2023-04-13T19:32:23.088Z,47.14
2023-04-13T19:35:10.805Z,47.22
2023-04-13T19:37:58.048Z,47.74
2023-04-13T19:40:44.859Z,46.72
2023-04-13T19:43:31.835Z,46.79
2023-04-13T19:46:18.718Z,47.76
2023-04-13T19:49:05.552Z,47.52
2023-04-13T19:51:52.519Z,47.60
2023-04-13T19:54:39.641Z,48.02
2023-04-13T19:57:26.485Z,48.16
2023-04-13T20:00:13.299Z,47.44
2023-04-13T20:03:00.506Z,48.30
2023-04-13T20:05:47.565Z,47.50
2023-04-13T20:08:34.503Z,48.27
2023-04-13T20:11:21.410Z,47.61
2023-04-13T20:14:08.374Z,48.47
2023-04-13T20:16:58.300Z,48.36
2023-04-13T20:19:45.150Z,48.32
2023-04-13T20:22:32.154Z,48.16
2023-04-13T20:25:19.062Z,48.85
2023-04-13T20:28:06.073Z,48.54
2023-04-13T20:30:53.122Z,48.22
2023-04-13T20:33:39.921Z,49.27
2023-04-13T20:36:26.908Z,48.67
2023-04-13T20:39:15.131Z,49.31
2023-04-13T20:42:01.993Z,49.11
2023-04-13T20:44:48.873Z,48.83
2023-04-13T20:47:36.301Z,49.00
2023-04-13T20:50:25.694Z,49.36
2023-04-13T20:53:13.990Z,49.71
2023-04-13T20:56:01.563Z,48.77
2023-04-13T20:58:50.977Z,48.86
2023-04-13T21:01:37.948Z,49.46
2023-04-13T21:04:24.783Z,49.63
2023-04-13T21:07:11.635Z,49.77
2023-04-13T21:09:58.624Z,49.82
2023-04-13T21:12:46.847Z,49.31
2023-04-13T21:15:33.763Z,49.51
2023-04-13T21:18:20.632Z,49.73
2023-04-13T21:21:07.431Z,49.80
2023-04-13T21:23:55.910Z,48.82
2023-04-13T21:26:42.805Z,49.91
2023-04-13T21:29:29.714Z,49.17
2023-04-13T21:32:16.710Z,49.23
2023-04-13T21:35:03.822Z,49.02
2023-04-13T21:37:50.831Z,50.43
2023-04-13T21:40:37.751Z,49.06
2023-04-13T21:43:24.619Z,49.09
2023-04-13T21:46:11.444Z,50.29
2023-04-13T21:48:58.397Z,49.50
2023-04-13T21:51:45.397Z,50.02
2023-04-13T21:54:32.353Z,49.23
2023-04-13T21:57:19.395Z,49.35
2023-04-13T22:00:06.700Z,50.00
2023-04-13T22:02:59.426Z,50.40
2023-04-13T22:05:46.646Z,49.95
2023-04-13T22:08:33.466Z,49.68
2023-04-13T22:11:20.830Z,49.80
2023-04-13T22:14:07.636Z,50.34
2023-04-13T22:16:54.719Z,49.71
2023-04-13T22:19:41.667Z,50.57
2023-04-13T22:22:28.563Z,49.75
2023-04-13T22:25:15.535Z,49.60
2023-04-13T22:28:02.461Z,50.66
2023-04-13T22:30:52.199Z,50.80
2023-04-13T22:33:39.941Z,50.62
2023-04-13T22:36:35.964Z,50.22
2023-04-13T22:39:22.831Z,50.07
2023-04-13T22:42:09.844Z,50.90
2023-04-13T22:44:56.753Z,50.87
2023-04-13T22:47:43.792Z,50.09
2023-04-13T22:50:30.895Z,50.26
2023-04-13T22:53:18.032Z,50.26
2023-04-13T22:56:05.024Z,50.92
2023-04-13T22:58:52.314Z,51.21
2023-04-13T23:01:39.290Z,50.41
2023-04-13T23:04:26.565Z,50.60
2023-04-13T23:07:13.553Z,50.84
2023-04-13T23:10:00.721Z,51.18
2023-04-13T23:12:47.558Z,50.53
2023-04-13T23:15:35.142Z,51.14
2023-04-13T23:18:22.113Z,51.32
2023-04-13T23:21:09.079Z,50.55
2023-04-13T23:23:56.332Z,50.77
2023-04-13T23:26:43.405Z,51.14
2023-04-13T23:29:30.289Z,50.51
2023-04-13T23:32:17.305Z,50.74
2023-04-13T23:35:04.199Z,51.06
2023-04-13T23:37:51.466Z,51.44
2023-04-13T23:40:38.413Z,50.83
2023-04-13T23:43:25.421Z,50.77
2023-04-13T23:46:12.841Z,51.39
2023-04-13T23:49:00.044Z,50.99
2023-04-13T23:51:46.976Z,51.25
2023-04-13T23:54:34.064Z,50.79
2023-04-13T23:57:20.912Z,51.00
2023-04-13T23:59:48.194Z,51.24
